Time;durP1;ratioP1;P1;durP2;ratioP2;P2;SDS_P1;SDS_P2;PMS_P1;PMS_P2;Temp;Humidity;BMP_temperature;BMP_pressure;BME280_temperature;BME280_humidity;BME280_pressure;Samples;Min_cycle;Max_cycle;Signal;HPM_P1;HPM_P2
2023/01/10 00:02:21;;;;;;;;;;;8.10;99.90;;;;;;5085676;28;20406;-78
2023/01/10 00:04:47;;;;;;;;;;;8.10;99.90;;;;;;5084972;28;19912;-77
2023/01/10 00:07:13;;;;;;;;;;;8.00;99.90;;;;;;5086000;28;19920;-77
2023/01/10 00:09:41;;;;;;;;;;;8.00;99.90;;;;;;5085936;28;19990;-77
2023/01/10 00:14:53;;;;;;;;;;;7.90;99.90;;;;;;5086179;28;19916;-78
2023/01/10 00:17:19;;;;;;;;;;;7.90;99.90;;;;;;5068446;28;19918;-77
2023/01/10 00:19:45;;;;;;;;;;;7.90;99.90;;;;;;5068230;28;19919;-77
2023/01/10 00:22:11;;;;;;;;;;;7.90;99.90;;;;;;5068908;28;19916;-77
2023/01/10 00:24:37;;;;;;;;;;;7.90;99.90;;;;;;5070838;28;19912;-76
2023/01/10 00:27:04;;;;;;;;;;;7.90;99.90;;;;;;5105053;28;20404;-78
2023/01/10 00:29:34;;;;;;;;;;;7.80;99.90;;;;;;5108700;28;19912;-78
2023/01/10 00:31:59;;;;;;;;;;;9.50;99.90;;;;;;5108191;28;19908;-77
2023/01/10 00:34:25;;;;;;;;;;;7.90;99.90;;;;;;5109825;28;19915;-78
2023/01/10 00:36:51;;;;;;;;;;;7.90;99.90;;;;;;5110348;28;20443;-77
2023/01/10 00:39:26;;;;;;;;;;;8.00;99.90;;;;;;5108893;28;20848;-78
2023/01/10 00:44:36;;;;;;;;;;;7.90;99.90;;;;;;5111362;28;19949;-78
2023/01/10 00:47:01;;;;;;;;;;;7.90;99.90;;;;;;5113213;28;19911;-78
2023/01/10 00:49:27;;;;;;;;;;;7.90;99.90;;;;;;5092840;28;19907;-77
2023/01/10 00:51:56;;;;;;;;;;;8.00;99.90;;;;;;5094570;28;19919;-78
2023/01/10 00:54:22;;;;;;;;;;;8.00;99.90;;;;;;5111232;28;19908;-77
2023/01/10 00:56:48;;;;;;;;;;;8.00;99.90;;;;;;5112003;28;20539;-77
2023/01/10 00:59:14;;;;;;;;;;;8.00;99.90;;;;;;5110795;28;20052;-77
2023/01/10 01:01:39;;;;;;;;;;;8.00;99.90;;;;;;5095291;28;20114;-78
2023/01/10 01:04:05;;;;;;;;;;;8.00;99.90;;;;;;5115943;28;19907;-77
2023/01/10 01:06:30;;;;;;;;;;;8.00;99.90;;;;;;5114892;28;19962;-78
2023/01/10 01:08:58;;;;;;;;;;;8.00;99.90;;;;;;5116475;28;19957;-77
2023/01/10 01:11:24;;;;;;;;;;;8.00;99.90;;;;;;5113372;28;20287;-77
2023/01/10 01:13:50;;;;;;;;;;;7.90;99.90;;;;;;5108973;28;19962;-77
2023/01/10 01:16:16;;;;;;;;;;;7.90;99.90;;;;;;5109166;28;19912;-78
2023/01/10 01:18:42;;;;;;;;;;;7.50;99.90;;;;;;5109495;28;19967;-77
2023/01/10 01:21:08;;;;;;;;;;;7.90;99.90;;;;;;5106645;28;20006;-77
2023/01/10 01:23:34;;;;;;;;;;;7.70;99.90;;;;;;5106309;28;19915;-77
2023/01/10 01:26:00;;;;;;;;;;;7.70;99.90;;;;;;5104588;28;19946;-77
2023/01/10 01:28:25;;;;;;;;;;;7.70;99.90;;;;;;5103467;28;19916;-78
2023/01/10 01:30:51;;;;;;;;;;;7.70;99.90;;;;;;5086101;28;19999;-78
2023/01/10 01:33:17;;;;;;;;;;;7.60;99.90;;;;;;5102581;28;19911;-78
2023/01/10 01:35:43;;;;;;;;;;;7.50;99.90;;;;;;5104968;28;20007;-78
2023/01/10 01:38:11;;;;;;;;;;;7.60;99.90;;;;;;5103552;28;20200;-78
2023/01/10 01:40:38;;;;;;;;;;;7.50;99.90;;;;;;5085556;28;19912;-78
2023/01/10 01:43:04;;;;;;;;;;;7.40;99.90;;;;;;5104424;28;19930;-77
2023/01/10 01:45:37;;;;;;;;;;;7.40;99.90;;;;;;5103795;28;19983;-78
2023/01/10 01:48:09;;;;;;;;;;;7.40;99.90;;;;;;5105344;28;19922;-77
2023/01/10 01:50:38;;;;;;;;;;;7.20;99.90;;;;;;5085324;28;19912;-78
2023/01/10 01:53:08;;;;;;;;;;;7.20;99.90;;;;;;5105084;28;20184;-78
2023/01/10 01:55:35;;;;;;;;;;;7.10;99.90;;;;;;5104035;28;19996;-77
2023/01/10 01:58:03;;;;;;;;;;;7.00;99.90;;;;;;5103782;28;19935;-78
2023/01/10 02:00:29;;;;;;;;;;;6.90;99.90;;;;;;5103789;28;19965;-79
2023/01/10 02:02:57;;;;;;;;;;;5.40;99.90;;;;;;5084959;28;19912;-77
2023/01/10 02:05:23;;;;;;;;;;;6.70;99.90;;;;;;5107568;28;19908;-78
2023/01/10 02:07:54;;;;;;;;;;;6.60;99.90;;;;;;5107969;28;20398;-78
2023/01/10 02:10:31;;;;;;;;;;;6.60;99.90;;;;;;5107164;28;20311;-77
2023/01/10 02:12:59;;;;;;;;;;;6.40;99.90;;;;;;5108016;28;19947;-76
2023/01/10 02:15:25;;;;;;;;;;;6.40;99.90;;;;;;5090068;28;19908;-77
2023/01/10 02:17:51;;;;;;;;;;;6.20;99.90;;;;;;5107513;28;19976;-79
2023/01/10 02:20:18;;;;;;;;;;;6.20;99.90;;;;;;5107681;28;19908;-77
2023/01/10 02:22:52;;;;;;;;;;;6.10;99.90;;;;;;5087917;28;19915;-76
2023/01/10 02:25:27;;;;;;;;;;;6.00;99.90;;;;;;5105510;28;19991;-77
2023/01/10 02:28:02;;;;;;;;;;;6.00;99.90;;;;;;5107320;28;20472;-77
2023/01/10 02:30:30;;;;;;;;;;;6.00;99.90;;;;;;5107492;28;19995;-76
2023/01/10 02:33:05;;;;;;;;;;;5.90;99.90;;;;;;5107302;28;19908;-77
2023/01/10 02:35:55;;;;;;;;;;;5.80;99.90;;;;;;5106894;28;20381;-78
2023/01/10 02:38:39;;;;;;;;;;;5.80;99.90;;;;;;4987120;28;19909;-77
2023/01/10 02:41:10;;;;;;;;;;;5.80;99.90;;;;;;4987129;28;19984;-77
2023/01/10 02:43:48;;;;;;;;;;;5.80;99.90;;;;;;5003297;28;19952;-78
2023/01/10 02:46:16;;;;;;;;;;;5.70;99.90;;;;;;4987332;28;20020;-79
2023/01/10 02:48:42;;;;;;;;;;;5.70;99.90;;;;;;4986917;28;19941;-77
2023/01/10 02:51:26;;;;;;;;;;;8.00;99.90;;;;;;5003634;28;20004;-78
2023/01/10 02:53:51;;;;;;;;;;;8.10;99.90;;;;;;4986396;28;19909;-78
2023/01/10 02:56:23;;;;;;;;;;;5.70;99.90;;;;;;4987374;28;19916;-78
2023/01/10 02:59:07;;;;;;;;;;;5.50;99.90;;;;;;5004263;28;19910;-77
2023/01/10 03:01:34;;;;;;;;;;;4.80;99.90;;;;;;5004021;28;19909;-77
2023/01/10 03:04:10;;;;;;;;;;;5.50;99.90;;;;;;5004248;28;19909;-77
2023/01/10 03:06:40;;;;;;;;;;;5.70;99.90;;;;;;5004643;28;20297;-77
2023/01/10 03:09:20;;;;;;;;;;;5.50;99.90;;;;;;5005070;28;19921;-77
2023/01/10 03:11:48;;;;;;;;;;;5.50;99.90;;;;;;5004786;28;19999;-77
2023/01/10 03:14:25;;;;;;;;;;;5.40;99.90;;;;;;5005989;28;19914;-78
2023/01/10 03:16:57;;;;;;;;;;;5.40;99.90;;;;;;5107087;28;19907;-79
2023/01/10 03:19:24;;;;;;;;;;;5.40;99.90;;;;;;5107166;28;20006;-77
2023/01/10 03:21:52;;;;;;;;;;;5.40;99.90;;;;;;5108697;28;20526;-79
2023/01/10 03:24:27;;;;;;;;;;;5.30;99.90;;;;;;5108483;28;19908;-77
2023/01/10 03:26:57;;;;;;;;;;;5.40;99.90;;;;;;5107094;28;19927;-77
2023/01/10 03:29:32;;;;;;;;;;;5.40;99.90;;;;;;5106750;28;19931;-77
2023/01/10 03:32:00;;;;;;;;;;;5.30;99.90;;;;;;5107336;28;19908;-77
2023/01/10 03:34:26;;;;;;;;;;;5.20;99.90;;;;;;5105948;28;20007;-76
2023/01/10 03:36:56;;;;;;;;;;;5.20;99.90;;;;;;5105343;28;20014;-76
2023/01/10 03:39:29;;;;;;;;;;;5.10;99.90;;;;;;5105753;28;20286;-77
2023/01/10 03:42:03;;;;;;;;;;;5.00;99.90;;;;;;5105543;28;19916;-76
2023/01/10 03:44:49;;;;;;;;;;;6.60;99.90;;;;;;5106178;28;19965;-77
2023/01/10 03:47:21;;;;;;;;;;;5.00;99.90;;;;;;5070098;28;19926;-77
2023/01/10 03:49:48;;;;;;;;;;;4.80;99.90;;;;;;5109884;28;19908;-78
2023/01/10 03:52:14;;;;;;;;;;;4.80;99.90;;;;;;5089263;28;20410;-77
2023/01/10 03:54:44;;;;;;;;;;;4.70;99.90;;;;;;5108330;28;19970;-76
2023/01/10 03:57:17;;;;;;;;;;;4.80;99.90;;;;;;5107799;28;19961;-77
2023/01/10 03:59:43;;;;;;;;;;;4.70;99.90;;;;;;5108173;28;19930;-77
2023/01/10 04:02:08;;;;;;;;;;;4.70;99.90;;;;;;5107422;28;20550;-77
2023/01/10 04:04:34;;;;;;;;;;;4.70;99.90;;;;;;5088972;28;19911;-77
2023/01/10 04:07:03;;;;;;;;;;;4.60;99.90;;;;;;5106940;28;19919;-76
2023/01/10 04:09:28;;;;;;;;;;;4.60;99.90;;;;;;5108056;28;19934;-78
2023/01/10 04:11:54;;;;;;;;;;;4.60;99.90;;;;;;5109435;28;19920;-77
2023/01/10 04:14:19;;;;;;;;;;;5.80;99.90;;;;;;5092709;28;19933;-76
2023/01/10 04:16:45;;;;;;;;;;;4.60;99.90;;;;;;5092788;28;20446;-77
2023/01/10 04:19:10;;;;;;;;;;;4.60;99.90;;;;;;5093165;28;20120;-77
2023/01/10 04:21:36;;;;;;;;;;;4.60;99.90;;;;;;5110241;28;19983;-76
2023/01/10 04:24:02;;;;;;;;;;;4.50;99.90;;;;;;5109506;28;20270;-77
2023/01/10 04:26:27;;;;;;;;;;;4.40;99.90;;;;;;5089132;28;20026;-76
2023/01/10 04:28:53;;;;;;;;;;;4.40;99.90;;;;;;5085964;28;20401;-77
2023/01/10 04:31:19;;;;;;;;;;;4.40;99.90;;;;;;5105544;28;19915;-76
2023/01/10 04:33:44;;;;;;;;;;;4.40;99.90;;;;;;5087772;28;19911;-76
2023/01/10 04:36:10;;;;;;;;;;;4.40;99.90;;;;;;5088551;28;20006;-77
2023/01/10 04:38:35;;;;;;;;;;;2.40;99.90;;;;;;5107097;28;19912;-76
2023/01/10 04:41:01;;;;;;;;;;;4.40;99.90;;;;;;5107241;28;20321;-77
2023/01/10 04:43:26;;;;;;;;;;;4.30;99.90;;;;;;5108660;28;19907;-76
2023/01/10 04:45:52;;;;;;;;;;;4.30;99.90;;;;;;5110785;28;19915;-77
2023/01/10 04:48:20;;;;;;;;;;;4.30;99.90;;;;;;5110490;28;19923;-78
2023/01/10 04:50:49;;;;;;;;;;;4.40;99.90;;;;;;5109427;28;19908;-77
2023/01/10 04:53:15;;;;;;;;;;;4.40;99.90;;;;;;5109971;28;19918;-77
2023/01/10 04:55:41;;;;;;;;;;;4.40;99.90;;;;;;5090400;28;19943;-77
2023/01/10 04:58:12;;;;;;;;;;;4.40;99.90;;;;;;5108485;28;19951;-77
2023/01/10 05:00:38;;;;;;;;;;;4.70;99.90;;;;;;5108639;28;20012;-76
2023/01/10 05:03:04;;;;;;;;;;;6.80;99.90;;;;;;5111959;28;19911;-77
2023/01/10 05:05:30;;;;;;;;;;;4.50;99.90;;;;;;5113779;28;19912;-77
2023/01/10 05:07:56;;;;;;;;;;;4.40;99.90;;;;;;5098941;28;20158;-76
2023/01/10 05:10:23;;;;;;;;;;;4.40;99.90;;;;;;5116978;28;19911;-77
2023/01/10 05:12:48;;;;;;;;;;;4.40;99.90;;;;;;5098353;28;19928;-78
2023/01/10 05:15:14;;;;;;;;;;;4.40;99.90;;;;;;5115921;28;19946;-77
2023/01/10 05:17:40;;;;;;;;;;;4.40;99.90;;;;;;5108520;28;20199;-78
2023/01/10 05:20:06;;;;;;;;;;;4.30;99.90;;;;;;5108817;28;19911;-77
2023/01/10 05:22:32;;;;;;;;;;;4.30;99.90;;;;;;5106776;28;19912;-77
2023/01/10 05:24:57;;;;;;;;;;;4.30;99.90;;;;;;5089167;28;19968;-77
2023/01/10 05:27:23;;;;;;;;;;;4.20;99.90;;;;;;5107285;28;19926;-77
2023/01/10 05:29:48;;;;;;;;;;;4.20;99.90;;;;;;5106247;28;19919;-76
2023/01/10 05:32:14;;;;;;;;;;;4.10;99.90;;;;;;5105885;28;19937;-78
2023/01/10 05:34:40;;;;;;;;;;;4.10;99.90;;;;;;5105624;28;20097;-77
2023/01/10 05:37:06;;;;;;;;;;;4.20;99.90;;;;;;5088235;28;19908;-78
2023/01/10 05:39:32;;;;;;;;;;;4.20;99.90;;;;;;5103784;28;19972;-77
2023/01/10 05:41:57;;;;;;;;;;;4.20;99.90;;;;;;5106589;28;19923;-77
2023/01/10 05:44:23;;;;;;;;;;;4.10;99.90;;;;;;5087945;28;19999;-76
2023/01/10 05:46:48;;;;;;;;;;;4.10;99.90;;;;;;5106666;28;19975;-77
2023/01/10 05:49:14;;;;;;;;;;;4.20;99.90;;;;;;5104946;28;19912;-77
2023/01/10 05:51:42;;;;;;;;;;;4.10;99.90;;;;;;5104886;28;20220;-76
2023/01/10 05:54:08;;;;;;;;;;;4.10;99.90;;;;;;5104285;28;19919;-78
2023/01/10 05:56:38;;;;;;;;;;;4.00;99.90;;;;;;5104948;28;19914;-77
2023/01/10 05:59:03;;;;;;;;;;;4.20;99.90;;;;;;5106463;28;19908;-76
2023/01/10 06:01:29;;;;;;;;;;;4.20;99.90;;;;;;5104497;28;20022;-76
2023/01/10 06:03:55;;;;;;;;;;;4.20;99.90;;;;;;5103788;28;19908;-76
2023/01/10 06:06:20;;;;;;;;;;;4.20;99.90;;;;;;5103522;28;19918;-76
2023/01/10 06:08:46;;;;;;;;;;;4.20;99.90;;;;;;5103574;28;19970;-77
2023/01/10 06:11:11;;;;;;;;;;;4.20;99.90;;;;;;5104819;28;19915;-77
2023/01/10 06:13:37;;;;;;;;;;;4.30;99.90;;;;;;5105103;28;19908;-76
2023/01/10 06:16:03;;;;;;;;;;;4.30;99.90;;;;;;5105285;28;19915;-78
2023/01/10 06:18:30;;;;;;;;;;;4.30;99.90;;;;;;5106242;28;19908;-76
2023/01/10 06:20:57;;;;;;;;;;;4.30;99.90;;;;;;5105543;28;20153;-77
2023/01/10 06:23:23;;;;;;;;;;;4.30;99.90;;;;;;5104660;28;19908;-77
2023/01/10 06:25:48;;;;;;;;;;;4.40;99.90;;;;;;5086458;28;20007;-79
2023/01/10 06:28:14;;;;;;;;;;;4.40;99.90;;;;;;5105508;28;20213;-77
2023/01/10 06:30:42;;;;;;;;;;;2.80;99.90;;;;;;5105080;28;19908;-79
2023/01/10 06:33:09;;;;;;;;;;;4.40;99.90;;;;;;5106749;28;19954;-77
2023/01/10 06:35:35;;;;;;;;;;;4.50;99.90;;;;;;5088989;28;19960;-76
2023/01/10 06:38:01;;;;;;;;;;;4.50;99.90;;;;;;5107381;28;19908;-78
2023/01/10 06:40:27;;;;;;;;;;;4.50;99.90;;;;;;5106368;28;20346;-78
2023/01/10 06:42:52;;;;;;;;;;;4.50;99.90;;;;;;5106706;28;19938;-78
2023/01/10 06:45:18;;;;;;;;;;;4.50;99.90;;;;;;5107355;28;19907;-80
2023/01/10 06:47:44;;;;;;;;;;;4.50;99.90;;;;;;5106351;28;19942;-77
2023/01/10 06:50:10;;;;;;;;;;;4.50;99.90;;;;;;5107547;28;20275;-77
2023/01/10 06:52:36;;;;;;;;;;;4.50;99.90;;;;;;5110985;28;19942;-76
2023/01/10 06:55:02;;;;;;;;;;;4.50;99.90;;;;;;5112002;28;20121;-77
2023/01/10 06:57:28;;;;;;;;;;;4.40;99.90;;;;;;5112362;28;19958;-78
2023/01/10 06:59:53;;;;;;;;;;;4.40;99.90;;;;;;5094102;28;20204;-77
2023/01/10 07:02:20;;;;;;;;;;;4.50;99.90;;;;;;5091958;28;19908;-77
2023/01/10 07:04:49;;;;;;;;;;;4.40;99.90;;;;;;5111412;28;19998;-77
2023/01/10 07:07:15;;;;;;;;;;;4.30;99.90;;;;;;5113202;28;19923;-78
2023/01/10 07:09:40;;;;;;;;;;;4.30;99.90;;;;;;5113373;28;19903;-78
2023/01/10 07:12:06;;;;;;;;;;;4.30;99.90;;;;;;5099225;28;19911;-77
2023/01/10 07:14:37;;;;;;;;;;;4.40;99.90;;;;;;5119802;28;20481;-78
2023/01/10 07:17:03;;;;;;;;;;;4.20;99.90;;;;;;5120377;28;19930;-79
2023/01/10 07:19:28;;;;;;;;;;;4.20;99.90;;;;;;5118988;28;19904;-76
2023/01/10 07:21:54;;;;;;;;;;;4.20;99.90;;;;;;5114290;28;19922;-78
2023/01/10 07:24:21;;;;;;;;;;;4.20;99.90;;;;;;5116615;28;19968;-77
2023/01/10 07:26:49;;;;;;;;;;;4.20;99.90;;;;;;5097483;28;19968;-80
2023/01/10 07:29:15;;;;;;;;;;;4.10;99.90;;;;;;5115221;28;20002;-77
2023/01/10 07:31:41;;;;;;;;;;;1.70;99.90;;;;;;5095402;28;20267;-78
2023/01/10 07:34:06;;;;;;;;;;;4.10;99.90;;;;;;5094091;28;19911;-79
2023/01/10 07:36:35;;;;;;;;;;;4.10;99.90;;;;;;5117460;28;19904;-79
2023/01/10 07:39:03;;;;;;;;;;;4.10;99.90;;;;;;5118449;28;19950;-79
2023/01/10 07:41:28;;;;;;;;;;;4.10;99.90;;;;;;5118072;28;20104;-78
2023/01/10 07:43:54;;;;;;;;;;;4.20;99.90;;;;;;5117205;28;20025;-79
2023/01/10 07:46:19;;;;;;;;;;;4.10;99.90;;;;;;5093866;28;19907;-77
2023/01/10 07:48:45;;;;;;;;;;;4.20;99.90;;;;;;5111947;28;19916;-77
2023/01/10 07:51:11;;;;;;;;;;;4.20;99.90;;;;;;5113550;28;19919;-77
2023/01/10 07:53:37;;;;;;;;;;;4.20;99.90;;;;;;5110898;28;19999;-77
2023/01/10 07:56:03;;;;;;;;;;;4.20;99.90;;;;;;5107117;28;20518;-78
2023/01/10 07:58:29;;;;;;;;;;;4.20;99.90;;;;;;5088806;28;19969;-78
2023/01/10 08:00:58;;;;;;;;;;;4.20;99.90;;;;;;5071829;28;19912;-78
2023/01/10 08:03:26;;;;;;;;;;;4.20;99.90;;;;;;5104301;28;19908;-79
2023/01/10 08:05:58;;;;;;;;;;;4.30;99.90;;;;;;5106283;28;19919;-77
2023/01/10 08:08:24;;;;;;;;;;;4.30;99.90;;;;;;5087051;28;20611;-78
2023/01/10 08:10:50;;;;;;;;;;;4.30;99.90;;;;;;5106860;28;19916;-78
2023/01/10 08:13:15;;;;;;;;;;;4.30;99.90;;;;;;5107193;28;19969;-78
2023/01/10 08:15:41;;;;;;;;;;;4.20;99.90;;;;;;5105175;28;19908;-78
2023/01/10 08:18:06;;;;;;;;;;;4.20;99.90;;;;;;5086860;28;19907;-77
2023/01/10 08:20:32;;;;;;;;;;;4.50;99.90;;;;;;5106289;28;19908;-79
2023/01/10 08:22:58;;;;;;;;;;;4.10;99.90;;;;;;5106364;28;20033;-78
2023/01/10 08:25:25;;;;;;;;;;;4.00;99.90;;;;;;5108056;28;20373;-77
2023/01/10 08:27:53;;;;;;;;;;;4.10;99.90;;;;;;5107090;28;19920;-78
2023/01/10 08:30:19;;;;;;;;;;;4.10;99.90;;;;;;5107241;28;20016;-80
2023/01/10 08:32:45;;;;;;;;;;;4.20;99.90;;;;;;5090180;28;19916;-77
2023/01/10 08:35:10;;;;;;;;;;;4.20;99.90;;;;;;5108914;28;19985;-79
2023/01/10 08:37:36;;;;;;;;;;;4.20;99.90;;;;;;5093923;28;19907;-79
2023/01/10 08:40:02;;;;;;;;;;;4.20;99.90;;;;;;5094266;28;20477;-80
2023/01/10 08:42:27;;;;;;;;;;;4.20;99.90;;;;;;5091799;28;19929;-77
2023/01/10 08:44:53;;;;;;;;;;;4.20;99.90;;;;;;5086792;28;19915;-78
2023/01/10 08:47:19;;;;;;;;;;;4.20;99.90;;;;;;5108331;28;19911;-77
2023/01/10 08:49:46;;;;;;;;;;;4.10;99.90;;;;;;5091499;28;19923;-78
2023/01/10 08:52:11;;;;;;;;;;;4.20;99.90;;;;;;5108084;28;19950;-78
2023/01/10 08:54:37;;;;;;;;;;;4.20;99.90;;;;;;5108879;28;20656;-77
2023/01/10 08:57:04;;;;;;;;;;;4.20;99.90;;;;;;5109018;28;19919;-80
2023/01/10 08:59:30;;;;;;;;;;;4.20;99.90;;;;;;5089564;28;19950;-78
2023/01/10 09:01:57;;;;;;;;;;;4.10;99.90;;;;;;5109289;28;19908;-77
2023/01/10 09:04:23;;;;;;;;;;;4.10;99.90;;;;;;5089942;28;19908;-78
2023/01/10 09:06:49;;;;;;;;;;;4.00;99.90;;;;;;5096198;28;19911;-78
2023/01/10 09:09:14;;;;;;;;;;;4.00;99.90;;;;;;5095544;28;19911;-79
2023/01/10 09:11:40;;;;;;;;;;;4.00;99.90;;;;;;5112162;28;20325;-76
2023/01/10 09:14:06;;;;;;;;;;;4.10;99.90;;;;;;5090371;28;19908;-76
2023/01/10 09:16:32;;;;;;;;;;;4.20;99.90;;;;;;5087775;28;19908;-76
2023/01/10 09:18:57;;;;;;;;;;;5.80;99.90;;;;;;5106724;28;19920;-79
2023/01/10 09:21:23;;;;;;;;;;;4.20;99.90;;;;;;5111433;28;19923;-78
2023/01/10 09:23:49;;;;;;;;;;;4.20;99.90;;;;;;5111975;28;19908;-77
2023/01/10 09:26:17;;;;;;;;;;;4.20;99.90;;;;;;5112050;28;20465;-78
2023/01/10 09:28:43;;;;;;;;;;;4.20;99.90;;;;;;5090926;28;19924;-77
2023/01/10 09:31:11;;;;;;;;;;;4.20;99.90;;;;;;5089418;28;20003;-78
2023/01/10 09:33:40;;;;;;;;;;;4.20;99.90;;;;;;5087197;28;19908;-78
2023/01/10 09:36:05;;;;;;;;;;;4.20;99.90;;;;;;5086768;28;19919;-79
2023/01/10 09:38:34;;;;;;;;;;;4.30;99.90;;;;;;5104259;28;19908;-78
2023/01/10 09:41:36;;;;;;;;;;;4.20;99.90;;;;;;5103673;28;19946;-77
2023/01/10 09:44:16;;;;;;;;;;;4.10;99.90;;;;;;5106875;28;19904;-78
2023/01/10 09:46:54;;;;;;;;;;;4.20;99.90;;;;;;5108038;28;19908;-81
2023/01/10 09:49:22;;;;;;;;;;;4.20;99.90;;;;;;5109157;28;19911;-78
2023/01/10 09:51:50;;;;;;;;;;;4.10;99.90;;;;;;5091582;28;20541;-75
2023/01/10 09:54:19;;;;;;;;;;;4.20;99.90;;;;;;5110197;28;19908;-76
2023/01/10 09:56:51;;;;;;;;;;;4.30;99.90;;;;;;5093026;28;19969;-78
2023/01/10 09:59:22;;;;;;;;;;;4.30;99.90;;;;;;5111082;28;19919;-79
2023/01/10 10:01:51;;;;;;;;;;;4.20;99.90;;;;;;5108550;28;19911;-77
2023/01/10 10:04:20;;;;;;;;;;;4.30;99.90;;;;;;5109197;28;19918;-77
2023/01/10 10:06:48;;;;;;;;;;;4.30;99.90;;;;;;5111190;28;19981;-77
2023/01/10 10:09:16;;;;;;;;;;;4.30;99.90;;;;;;5089972;28;19911;-79
2023/01/10 10:11:49;;;;;;;;;;;4.30;99.90;;;;;;5087860;28;19907;-78
2023/01/10 10:14:38;;;;;;;;;;;4.30;99.90;;;;;;5106910;28;19911;-78
2023/01/10 10:17:06;;;;;;;;;;;4.30;99.90;;;;;;5106206;28;19904;-78
2023/01/10 10:19:52;;;;;;;;;;;4.30;99.90;;;;;;5107393;28;19908;-78
2023/01/10 10:22:46;;;;;;;;;;;4.30;99.90;;;;;;5106762;28;19919;-79
2023/01/10 10:25:39;;;;;;;;;;;4.30;99.90;;;;;;5086672;28;20006;-78
2023/01/10 10:28:11;;;;;;;;;;;4.40;99.90;;;;;;4994236;28;19937;-78
2023/01/10 10:30:54;;;;;;;;;;;4.40;99.90;;;;;;4977756;28;19909;-78
2023/01/10 10:33:22;;;;;;;;;;;4.40;99.90;;;;;;4992212;28;20002;-79
2023/01/10 10:36:07;;;;;;;;;;;4.40;99.90;;;;;;4973356;28;19945;-78
2023/01/10 10:38:36;;;;;;;;;;;4.90;99.90;;;;;;4975066;28;19914;-79
2023/01/10 10:41:02;;;;;;;;;;;4.50;99.90;;;;;;4992950;28;20178;-78
2023/01/10 10:43:33;;;;;;;;;;;4.50;99.90;;;;;;4975247;28;19914;-78
2023/01/10 10:46:09;;;;;;;;;;;4.50;99.90;;;;;;4989944;28;19981;-78
2023/01/10 10:48:55;;;;;;;;;;;4.50;99.90;;;;;;4988262;28;20399;-76
2023/01/10 10:51:49;;;;;;;;;;;4.50;99.90;;;;;;4985867;28;19969;-78
2023/01/10 10:54:15;;;;;;;;;;;4.40;99.90;;;;;;4993928;28;20020;-78
2023/01/10 10:56:41;;;;;;;;;;;4.50;99.90;;;;;;4991833;28;20111;-77
2023/01/10 10:59:07;;;;;;;;;;;4.50;99.90;;;;;;4992481;28;20210;-78
2023/01/10 11:01:33;;;;;;;;;;;4.50;99.90;;;;;;4994172;28;20585;-80
2023/01/10 11:04:06;;;;;;;;;;;4.50;99.90;;;;;;5007088;28;19917;-78
2023/01/10 11:06:34;;;;;;;;;;;2.70;99.90;;;;;;5097157;28;19908;-77
2023/01/10 11:09:00;;;;;;;;;;;4.50;99.90;;;;;;5096758;28;19919;-78
2023/01/10 11:11:34;;;;;;;;;;;4.40;99.90;;;;;;5098414;28;19908;-78
2023/01/10 11:14:01;;;;;;;;;;;4.40;99.90;;;;;;5080330;28;19919;-78
2023/01/10 11:16:28;;;;;;;;;;;4.40;99.90;;;;;;5101433;28;19926;-80
2023/01/10 11:19:15;;;;;;;;;;;4.50;99.90;;;;;;5080635;28;19970;-78
2023/01/10 11:21:44;;;;;;;;;;;4.60;99.90;;;;;;5097973;28;19912;-78
2023/01/10 11:24:21;;;;;;;;;;;4.60;99.90;;;;;;5092451;28;19942;-77
2023/01/10 11:26:47;;;;;;;;;;;4.70;99.90;;;;;;5078170;28;19915;-79
2023/01/10 11:29:15;;;;;;;;;;;5.00;99.90;;;;;;5093735;28;19911;-78
2023/01/10 11:31:40;;;;;;;;;;;4.70;99.90;;;;;;5111002;28;19908;-78
2023/01/10 11:34:25;;;;;;;;;;;4.70;99.90;;;;;;5092416;28;19908;-78
2023/01/10 11:36:51;;;;;;;;;;;4.70;99.90;;;;;;5109900;28;19903;-79
2023/01/10 11:39:17;;;;;;;;;;;4.70;99.90;;;;;;5109918;28;19919;-79
2023/01/10 11:41:43;;;;;;;;;;;4.60;99.90;;;;;;5110078;28;19907;-76
2023/01/10 11:44:14;;;;;;;;;;;4.50;99.90;;;;;;5109867;28;19915;-79
2023/01/10 11:46:42;;;;;;;;;;;4.50;99.90;;;;;;5110309;28;20639;-78
2023/01/10 11:49:13;;;;;;;;;;;4.50;99.90;;;;;;5112886;28;19918;-77
2023/01/10 11:51:43;;;;;;;;;;;4.50;99.90;;;;;;5112629;28;20251;-78
2023/01/10 11:54:16;;;;;;;;;;;4.60;99.90;;;;;;5111440;28;19914;-78
2023/01/10 11:56:53;;;;;;;;;;;4.40;99.90;;;;;;5112323;28;19915;-78
2023/01/10 11:59:19;;;;;;;;;;;4.00;99.90;;;;;;5113061;28;19908;-80
2023/01/10 12:01:47;;;;;;;;;;;4.50;99.90;;;;;;5093389;28;19976;-77
2023/01/10 12:04:17;;;;;;;;;;;4.40;99.90;;;;;;5112311;28;19904;-80
2023/01/10 12:06:51;;;;;;;;;;;4.40;99.90;;;;;;5111795;28;19911;-77
2023/01/10 12:09:35;;;;;;;;;;;4.40;99.90;;;;;;5110658;28;20377;-78
2023/01/10 12:12:13;;;;;;;;;;;4.30;99.90;;;;;;5112560;28;19907;-78
2023/01/10 12:14:38;;;;;;;;;;;4.30;99.90;;;;;;5108782;28;19908;-77
2023/01/10 12:17:04;;;;;;;;;;;4.30;99.90;;;;;;5109099;28;19962;-77
2023/01/10 12:19:30;;;;;;;;;;;4.30;99.90;;;;;;5109775;28;19919;-77
2023/01/10 12:21:59;;;;;;;;;;;4.30;99.90;;;;;;5109432;28;19947;-79
2023/01/10 12:24:46;;;;;;;;;;;4.20;99.90;;;;;;5096152;28;20597;-77
2023/01/10 12:27:13;;;;;;;;;;;4.20;99.90;;;;;;5110172;28;19920;-78
2023/01/10 12:29:48;;;;;;;;;;;4.30;99.90;;;;;;5108715;28;19908;-77
2023/01/10 12:32:20;;;;;;;;;;;4.20;99.90;;;;;;5111846;28;19959;-77
2023/01/10 12:34:49;;;;;;;;;;;4.30;99.90;;;;;;5112210;28;19915;-77
2023/01/10 12:37:21;;;;;;;;;;;4.20;99.90;;;;;;5093032;28;19918;-79
2023/01/10 12:39:52;;;;;;;;;;;4.30;99.90;;;;;;5112560;28;19908;-78
2023/01/10 12:45:02;;;;;;;;;;;4.40;99.90;;;;;;5112741;28;19915;-80
2023/01/10 12:47:38;;;;;;;;;;;4.40;99.90;;;;;;5092994;28;19916;-76
2023/01/10 12:50:13;;;;;;;;;;;4.40;99.90;;;;;;5111567;28;19934;-77
2023/01/10 12:52:44;;;;;;;;;;;4.40;99.90;;;;;;5109975;28;19908;-78
2023/01/10 12:55:17;;;;;;;;;;;4.40;99.90;;;;;;5091545;28;19931;-76
2023/01/10 12:57:47;;;;;;;;;;;4.40;99.90;;;;;;5092111;28;19908;-79
2023/01/10 13:00:36;;;;;;;;;;;4.20;99.90;;;;;;5109576;28;19915;-77
2023/01/10 13:03:05;;;;;;;;;;;4.30;99.90;;;;;;5008636;28;19914;-80
2023/01/10 13:05:31;;;;;;;;;;;4.40;99.90;;;;;;4991949;28;19914;-78
2023/01/10 13:08:02;;;;;;;;;;;4.40;99.90;;;;;;4993221;28;19978;-78
2023/01/10 13:10:29;;;;;;;;;;;4.40;99.90;;;;;;5013988;28;19971;-77
2023/01/10 13:13:01;;;;;;;;;;;4.40;99.90;;;;;;5019497;28;19905;-77
2023/01/10 13:15:29;;;;;;;;;;;4.30;99.90;;;;;;5015189;28;19916;-78
2023/01/10 13:18:15;;;;;;;;;;;4.30;99.90;;;;;;5014983;28;19905;-78
2023/01/10 13:20:41;;;;;;;;;;;4.30;99.90;;;;;;4993613;28;20119;-78
2023/01/10 13:23:19;;;;;;;;;;;4.30;99.90;;;;;;4992951;28;20394;-80
2023/01/10 13:25:53;;;;;;;;;;;4.30;99.90;;;;;;5010008;28;19913;-78
2023/01/10 13:28:21;;;;;;;;;;;4.30;99.90;;;;;;5011592;28;20437;-77
2023/01/10 13:30:54;;;;;;;;;;;4.20;99.90;;;;;;5009040;28;19917;-79
2023/01/10 13:33:29;;;;;;;;;;;4.20;99.90;;;;;;5005248;28;19914;-81
2023/01/10 13:36:06;;;;;;;;;;;2.80;99.90;;;;;;5004927;28;19979;-77
2023/01/10 13:38:32;;;;;;;;;;;4.10;99.90;;;;;;5002745;28;19909;-79
2023/01/10 13:41:05;;;;;;;;;;;1.70;99.90;;;;;;5091983;28;19916;-78
2023/01/10 13:43:35;;;;;;;;;;;4.00;99.90;;;;;;5105142;28;19908;-79
2023/01/10 13:46:31;;;;;;;;;;;4.00;99.90;;;;;;5107974;28;19904;-78
2023/01/10 13:48:59;;;;;;;;;;;4.00;99.90;;;;;;5087769;28;19950;-79
2023/01/10 13:51:28;;;;;;;;;;;3.90;99.90;;;;;;5086099;28;19911;-78
2023/01/10 13:54:23;;;;;;;;;;;4.00;99.90;;;;;;5087948;28;19908;-78
2023/01/10 13:56:48;;;;;;;;;;;4.00;99.90;;;;;;5105057;28;19929;-77
2023/01/10 14:02:33;;;;;;;;;;;4.10;99.90;;;;;;5111261;28;20013;-77
2023/01/10 14:05:06;;;;;;;;;;;4.10;99.90;;;;;;5092317;28;19907;-78
2023/01/10 14:07:50;;;;;;;;;;;4.10;99.90;;;;;;5112327;28;19922;-77
2023/01/10 14:10:27;;;;;;;;;;;4.10;99.90;;;;;;5114701;28;19911;-78
2023/01/10 14:13:07;;;;;;;;;;;4.10;99.90;;;;;;5113176;28;19908;-78
2023/01/10 14:15:47;;;;;;;;;;;4.10;99.90;;;;;;5095240;28;19908;-78
2023/01/10 14:18:31;;;;;;;;;;;4.10;99.90;;;;;;5111954;28;19912;-79
2023/01/10 14:21:01;;;;;;;;;;;4.10;99.90;;;;;;5112852;28;20622;-77
2023/01/10 14:23:30;;;;;;;;;;;4.10;99.90;;;;;;5110735;28;19907;-79
2023/01/10 14:25:56;;;;;;;;;;;4.10;99.90;;;;;;5110811;28;19918;-79
2023/01/10 14:28:29;;;;;;;;;;;4.10;99.90;;;;;;5112857;28;19981;-78
2023/01/10 14:31:12;;;;;;;;;;;4.10;99.90;;;;;;5115182;28;19919;-79
2023/01/10 14:33:40;;;;;;;;;;;4.10;99.90;;;;;;5114959;28;19933;-78
2023/01/10 14:36:14;;;;;;;;;;;4.10;99.90;;;;;;5094958;28;20011;-78
2023/01/10 14:38:42;;;;;;;;;;;4.00;99.90;;;;;;5112318;28;19920;-79
2023/01/10 14:41:20;;;;;;;;;;;4.00;99.90;;;;;;5109819;28;19907;-79
2023/01/10 14:43:51;;;;;;;;;;;4.00;99.90;;;;;;5094370;28;19915;-79
2023/01/10 14:46:19;;;;;;;;;;;3.90;99.90;;;;;;5112866;28;19908;-77
2023/01/10 14:48:44;;;;;;;;;;;3.90;99.90;;;;;;5108800;28;19912;-79
2023/01/10 14:51:22;;;;;;;;;;;3.90;99.90;;;;;;5107220;28;19969;-78
2023/01/10 14:53:54;;;;;;;;;;;3.90;99.90;;;;;;5109304;28;19908;-77
2023/01/10 14:56:21;;;;;;;;;;;4.00;99.90;;;;;;5110145;28;20003;-77